sensor_id;sensor_type;location;lat;lon;timestamp;P1;durP1;ratioP1;P2;durP2;ratioP2
35330;SDS011;21441;52.190;20.910;2023-10-09T00:01:02;7.55;;;4.15;;
35330;SDS011;21441;52.190;20.910;2023-10-09T00:03:48;9.15;;;4.13;;
35330;SDS011;21441;52.190;20.910;2023-10-09T00:06:21;6.85;;;3.85;;
35330;SDS011;21441;52.190;20.910;2023-10-09T00:08:56;6.65;;;4.10;;
35330;SDS011;21441;52.190;20.910;2023-10-09T00:11:37;5.50;;;3.10;;
35330;SDS011;21441;52.190;20.910;2023-10-09T00:14:07;7.32;;;4.07;;
35330;SDS011;21441;52.190;20.910;2023-10-09T00:16:34;8.38;;;3.33;;
35330;SDS011;21441;52.190;20.910;2023-10-09T00:19:02;6.97;;;3.92;;
35330;SDS011;21441;52.190;20.910;2023-10-09T00:21:41;7.05;;;4.18;;
35330;SDS011;21441;52.190;20.910;2023-10-09T00:24:08;8.73;;;3.80;;
35330;SDS011;21441;52.190;20.910;2023-10-09T00:26:39;6.65;;;3.42;;
35330;SDS011;21441;52.190;20.910;2023-10-09T00:29:10;7.78;;;3.55;;
35330;SDS011;21441;52.190;20.910;2023-10-09T00:31:41;8.13;;;3.70;;
35330;SDS011;21441;52.190;20.910;2023-10-09T00:34:15;8.68;;;3.58;;
35330;SDS011;21441;52.190;20.910;2023-10-09T00:36:46;5.10;;;3.10;;
35330;SDS011;21441;52.190;20.910;2023-10-09T00:39:16;7.07;;;3.60;;
35330;SDS011;21441;52.190;20.910;2023-10-09T00:41:56;6.10;;;3.17;;
35330;SDS011;21441;52.190;20.910;2023-10-09T00:44:24;7.72;;;3.65;;
35330;SDS011;21441;52.190;20.910;2023-10-09T00:47:04;7.70;;;3.92;;
35330;SDS011;21441;52.190;20.910;2023-10-09T00:49:36;7.40;;;3.58;;
35330;SDS011;21441;52.190;20.910;2023-10-09T00:52:08;6.97;;;3.10;;
35330;SDS011;21441;52.190;20.910;2023-10-09T00:54:47;5.60;;;3.40;;
35330;SDS011;21441;52.190;20.910;2023-10-09T00:57:17;5.82;;;2.85;;
35330;SDS011;21441;52.190;20.910;2023-10-09T00:59:52;7.10;;;3.53;;
35330;SDS011;21441;52.190;20.910;2023-10-09T01:02:26;5.22;;;3.30;;
35330;SDS011;21441;52.190;20.910;2023-10-09T01:05:01;4.90;;;3.03;;
35330;SDS011;21441;52.190;20.910;2023-10-09T01:07:38;4.95;;;3.45;;
35330;SDS011;21441;52.190;20.910;2023-10-09T01:10:06;5.65;;;3.42;;
35330;SDS011;21441;52.190;20.910;2023-10-09T01:12:55;5.25;;;2.60;;
35330;SDS011;21441;52.190;20.910;2023-10-09T01:15:21;6.53;;;3.10;;
35330;SDS011;21441;52.190;20.910;2023-10-09T01:18:09;6.70;;;3.08;;
35330;SDS011;21441;52.190;20.910;2023-10-09T01:20:36;6.40;;;3.10;;
35330;SDS011;21441;52.190;20.910;2023-10-09T01:23:10;7.55;;;3.08;;
35330;SDS011;21441;52.190;20.910;2023-10-09T01:25:37;5.60;;;3.60;;
35330;SDS011;21441;52.190;20.910;2023-10-09T01:28:10;4.72;;;2.80;;
35330;SDS011;21441;52.190;20.910;2023-10-09T01:30:41;7.25;;;3.35;;
35330;SDS011;21441;52.190;20.910;2023-10-09T01:33:08;4.72;;;3.30;;
35330;SDS011;21441;52.190;20.910;2023-10-09T01:35:44;6.43;;;3.42;;
35330;SDS011;21441;52.190;20.910;2023-10-09T01:40:43;6.05;;;3.15;;
35330;SDS011;21441;52.190;20.910;2023-10-09T01:43:10;6.35;;;3.83;;
35330;SDS011;21441;52.190;20.910;2023-10-09T01:45:38;5.50;;;3.63;;
35330;SDS011;21441;52.190;20.910;2023-10-09T01:48:11;7.78;;;3.22;;
35330;SDS011;21441;52.190;20.910;2023-10-09T01:50:40;5.65;;;3.47;;
35330;SDS011;21441;52.190;20.910;2023-10-09T01:53:08;9.75;;;3.42;;
35330;SDS011;21441;52.190;20.910;2023-10-09T01:55:35;6.75;;;3.65;;
35330;SDS011;21441;52.190;20.910;2023-10-09T01:58:06;8.50;;;4.15;;
35330;SDS011;21441;52.190;20.910;2023-10-09T02:00:42;8.80;;;3.85;;
35330;SDS011;21441;52.190;20.910;2023-10-09T02:03:20;7.40;;;4.30;;
35330;SDS011;21441;52.190;20.910;2023-10-09T02:05:51;6.32;;;3.78;;
35330;SDS011;21441;52.190;20.910;2023-10-09T02:08:24;6.13;;;3.50;;
35330;SDS011;21441;52.190;20.910;2023-10-09T02:10:53;5.70;;;3.33;;
35330;SDS011;21441;52.190;20.910;2023-10-09T02:13:23;9.00;;;4.78;;
35330;SDS011;21441;52.190;20.910;2023-10-09T02:15:55;7.32;;;3.10;;
35330;SDS011;21441;52.190;20.910;2023-10-09T02:18:25;8.02;;;3.63;;
35330;SDS011;21441;52.190;20.910;2023-10-09T02:21:05;5.78;;;3.38;;
35330;SDS011;21441;52.190;20.910;2023-10-09T02:23:39;8.85;;;3.05;;
35330;SDS011;21441;52.190;20.910;2023-10-09T02:26:07;5.35;;;4.13;;
35330;SDS011;21441;52.190;20.910;2023-10-09T02:28:35;4.82;;;3.45;;
35330;SDS011;21441;52.190;20.910;2023-10-09T02:31:09;5.00;;;3.22;;
35330;SDS011;21441;52.190;20.910;2023-10-09T02:33:36;7.90;;;3.30;;
35330;SDS011;21441;52.190;20.910;2023-10-09T02:36:04;7.90;;;3.90;;
35330;SDS011;21441;52.190;20.910;2023-10-09T02:38:31;9.20;;;3.78;;
35330;SDS011;21441;52.190;20.910;2023-10-09T02:41:01;5.22;;;3.47;;
35330;SDS011;21441;52.190;20.910;2023-10-09T02:43:45;6.47;;;3.20;;
35330;SDS011;21441;52.190;20.910;2023-10-09T02:46:12;5.72;;;3.10;;
35330;SDS011;21441;52.190;20.910;2023-10-09T02:48:43;7.70;;;3.78;;
35330;SDS011;21441;52.190;20.910;2023-10-09T02:51:14;6.93;;;3.60;;
35330;SDS011;21441;52.190;20.910;2023-10-09T02:53:46;7.88;;;3.30;;
35330;SDS011;21441;52.190;20.910;2023-10-09T02:56:15;7.88;;;3.55;;
35330;SDS011;21441;52.190;20.910;2023-10-09T02:58:50;6.75;;;3.60;;
35330;SDS011;21441;52.190;20.910;2023-10-09T03:01:17;8.73;;;3.92;;
35330;SDS011;21441;52.190;20.910;2023-10-09T03:03:44;5.20;;;3.90;;
35330;SDS011;21441;52.190;20.910;2023-10-09T03:06:13;6.75;;;4.13;;
35330;SDS011;21441;52.190;20.910;2023-10-09T03:08:51;6.07;;;4.18;;
35330;SDS011;21441;52.190;20.910;2023-10-09T03:11:20;7.78;;;3.80;;
35330;SDS011;21441;52.190;20.910;2023-10-09T03:13:47;9.43;;;4.45;;
35330;SDS011;21441;52.190;20.910;2023-10-09T03:16:15;7.85;;;3.30;;
35330;SDS011;21441;52.190;20.910;2023-10-09T03:18:44;5.57;;;3.38;;
35330;SDS011;21441;52.190;20.910;2023-10-09T03:21:12;8.10;;;3.97;;
35330;SDS011;21441;52.190;20.910;2023-10-09T03:23:39;9.02;;;4.40;;
35330;SDS011;21441;52.190;20.910;2023-10-09T03:26:06;6.65;;;3.80;;
35330;SDS011;21441;52.190;20.910;2023-10-09T03:28:34;7.55;;;3.92;;
35330;SDS011;21441;52.190;20.910;2023-10-09T03:31:01;6.57;;;3.85;;
35330;SDS011;21441;52.190;20.910;2023-10-09T03:33:29;5.45;;;3.65;;
35330;SDS011;21441;52.190;20.910;2023-10-09T03:35:58;6.28;;;3.40;;
35330;SDS011;21441;52.190;20.910;2023-10-09T03:38:25;6.50;;;3.85;;
35330;SDS011;21441;52.190;20.910;2023-10-09T03:40:55;10.97;;;4.80;;
35330;SDS011;21441;52.190;20.910;2023-10-09T03:43:21;8.63;;;4.38;;
35330;SDS011;21441;52.190;20.910;2023-10-09T03:45:49;10.63;;;3.95;;
35330;SDS011;21441;52.190;20.910;2023-10-09T03:48:18;8.75;;;3.80;;
35330;SDS011;21441;52.190;20.910;2023-10-09T03:50:52;8.38;;;4.38;;
35330;SDS011;21441;52.190;20.910;2023-10-09T03:53:34;7.32;;;4.15;;
35330;SDS011;21441;52.190;20.910;2023-10-09T03:56:03;15.48;;;4.97;;
35330;SDS011;21441;52.190;20.910;2023-10-09T03:58:31;9.55;;;4.78;;
35330;SDS011;21441;52.190;20.910;2023-10-09T04:00:59;6.85;;;4.03;;
35330;SDS011;21441;52.190;20.910;2023-10-09T04:03:26;9.60;;;4.25;;
35330;SDS011;21441;52.190;20.910;2023-10-09T04:05:54;9.38;;;4.30;;
35330;SDS011;21441;52.190;20.910;2023-10-09T04:08:22;7.07;;;4.03;;
35330;SDS011;21441;52.190;20.910;2023-10-09T04:10:54;8.18;;;4.47;;
35330;SDS011;21441;52.190;20.910;2023-10-09T04:13:27;7.72;;;4.43;;
35330;SDS011;21441;52.190;20.910;2023-10-09T04:15:59;7.15;;;4.22;;
35330;SDS011;21441;52.190;20.910;2023-10-09T04:18:34;7.72;;;4.22;;
35330;SDS011;21441;52.190;20.910;2023-10-09T04:21:05;6.38;;;3.65;;
35330;SDS011;21441;52.190;20.910;2023-10-09T04:23:44;6.80;;;3.75;;
35330;SDS011;21441;52.190;20.910;2023-10-09T04:26:35;8.32;;;4.07;;
35330;SDS011;21441;52.190;20.910;2023-10-09T04:29:02;6.45;;;3.65;;
35330;SDS011;21441;52.190;20.910;2023-10-09T04:31:29;8.23;;;4.53;;
35330;SDS011;21441;52.190;20.910;2023-10-09T04:34:03;8.05;;;4.10;;
35330;SDS011;21441;52.190;20.910;2023-10-09T04:36:50;6.78;;;3.72;;
35330;SDS011;21441;52.190;20.910;2023-10-09T04:39:19;6.55;;;3.67;;
35330;SDS011;21441;52.190;20.910;2023-10-09T04:42:00;7.10;;;3.95;;
35330;SDS011;21441;52.190;20.910;2023-10-09T04:44:40;5.97;;;3.75;;
35330;SDS011;21441;52.190;20.910;2023-10-09T04:47:26;8.70;;;3.72;;
35330;SDS011;21441;52.190;20.910;2023-10-09T04:50:01;6.55;;;3.75;;
35330;SDS011;21441;52.190;20.910;2023-10-09T04:52:38;7.07;;;3.25;;
35330;SDS011;21441;52.190;20.910;2023-10-09T04:55:19;9.15;;;3.75;;
35330;SDS011;21441;52.190;20.910;2023-10-09T04:57:50;5.53;;;3.85;;
35330;SDS011;21441;52.190;20.910;2023-10-09T05:00:34;5.88;;;3.58;;
35330;SDS011;21441;52.190;20.910;2023-10-09T05:03:27;8.27;;;4.28;;
35330;SDS011;21441;52.190;20.910;2023-10-09T05:05:55;8.88;;;4.10;;
35330;SDS011;21441;52.190;20.910;2023-10-09T05:08:27;5.97;;;3.95;;
35330;SDS011;21441;52.190;20.910;2023-10-09T05:10:59;8.20;;;4.07;;
35330;SDS011;21441;52.190;20.910;2023-10-09T05:13:41;6.53;;;3.22;;
35330;SDS011;21441;52.190;20.910;2023-10-09T05:16:23;7.88;;;3.50;;
35330;SDS011;21441;52.190;20.910;2023-10-09T05:18:52;5.80;;;3.03;;
35330;SDS011;21441;52.190;20.910;2023-10-09T05:21:21;5.07;;;2.77;;
35330;SDS011;21441;52.190;20.910;2023-10-09T05:24:11;8.40;;;4.25;;
35330;SDS011;21441;52.190;20.910;2023-10-09T05:26:45;7.18;;;4.30;;
35330;SDS011;21441;52.190;20.910;2023-10-09T05:29:18;5.38;;;3.60;;
35330;SDS011;21441;52.190;20.910;2023-10-09T05:31:45;6.57;;;3.85;;
35330;SDS011;21441;52.190;20.910;2023-10-09T05:34:22;8.43;;;3.92;;
35330;SDS011;21441;52.190;20.910;2023-10-09T05:36:48;6.28;;;3.60;;
35330;SDS011;21441;52.190;20.910;2023-10-09T05:39:16;7.57;;;3.75;;
35330;SDS011;21441;52.190;20.910;2023-10-09T05:41:44;8.18;;;4.05;;
35330;SDS011;21441;52.190;20.910;2023-10-09T05:44:25;6.82;;;4.13;;
35330;SDS011;21441;52.190;20.910;2023-10-09T05:47:09;8.25;;;3.80;;
35330;SDS011;21441;52.190;20.910;2023-10-09T05:49:54;4.65;;;3.20;;
35330;SDS011;21441;52.190;20.910;2023-10-09T05:52:27;6.07;;;3.90;;
35330;SDS011;21441;52.190;20.910;2023-10-09T05:55:24;7.30;;;3.42;;
35330;SDS011;21441;52.190;20.910;2023-10-09T05:58:08;9.02;;;3.88;;
35330;SDS011;21441;52.190;20.910;2023-10-09T06:00:52;7.07;;;3.78;;
35330;SDS011;21441;52.190;20.910;2023-10-09T06:03:51;6.97;;;3.72;;
35330;SDS011;21441;52.190;20.910;2023-10-09T06:06:21;5.35;;;3.28;;
35330;SDS011;21441;52.190;20.910;2023-10-09T06:09:08;6.53;;;3.50;;
35330;SDS011;21441;52.190;20.910;2023-10-09T06:11:53;8.27;;;3.85;;
35330;SDS011;21441;52.190;20.910;2023-10-09T06:14:41;6.13;;;3.50;;
35330;SDS011;21441;52.190;20.910;2023-10-09T06:17:24;6.95;;;3.40;;
35330;SDS011;21441;52.190;20.910;2023-10-09T06:19:53;6.00;;;3.43;;
35330;SDS011;21441;52.190;20.910;2023-10-09T06:22:24;5.88;;;3.25;;
35330;SDS011;21441;52.190;20.910;2023-10-09T06:25:11;8.77;;;3.97;;
35330;SDS011;21441;52.190;20.910;2023-10-09T06:27:41;7.25;;;3.88;;
35330;SDS011;21441;52.190;20.910;2023-10-09T06:30:26;9.70;;;4.43;;
35330;SDS011;21441;52.190;20.910;2023-10-09T06:32:54;7.63;;;4.72;;
35330;SDS011;21441;52.190;20.910;2023-10-09T06:35:39;9.18;;;4.20;;
35330;SDS011;21441;52.190;20.910;2023-10-09T06:38:14;6.70;;;4.45;;
35330;SDS011;21441;52.190;20.910;2023-10-09T06:40:47;11.30;;;5.13;;
35330;SDS011;21441;52.190;20.910;2023-10-09T06:43:33;7.90;;;3.95;;
35330;SDS011;21441;52.190;20.910;2023-10-09T06:46:14;7.05;;;4.38;;
35330;SDS011;21441;52.190;20.910;2023-10-09T06:48:59;6.57;;;3.83;;
35330;SDS011;21441;52.190;20.910;2023-10-09T06:51:40;7.72;;;3.60;;
35330;SDS011;21441;52.190;20.910;2023-10-09T06:54:06;7.95;;;3.95;;
35330;SDS011;21441;52.190;20.910;2023-10-09T06:56:43;9.10;;;5.35;;
35330;SDS011;21441;52.190;20.910;2023-10-09T06:59:43;4.95;;;3.28;;
35330;SDS011;21441;52.190;20.910;2023-10-09T07:02:24;6.03;;;3.33;;
35330;SDS011;21441;52.190;20.910;2023-10-09T07:04:57;8.75;;;3.80;;
35330;SDS011;21441;52.190;20.910;2023-10-09T07:07:36;7.05;;;3.88;;
35330;SDS011;21441;52.190;20.910;2023-10-09T07:10:13;7.40;;;3.53;;
35330;SDS011;21441;52.190;20.910;2023-10-09T07:12:58;7.88;;;4.47;;
35330;SDS011;21441;52.190;20.910;2023-10-09T07:15:26;6.53;;;4.07;;
35330;SDS011;21441;52.190;20.910;2023-10-09T07:18:10;8.57;;;3.50;;
35330;SDS011;21441;52.190;20.910;2023-10-09T07:20:49;7.20;;;3.53;;
35330;SDS011;21441;52.190;20.910;2023-10-09T07:23:27;6.18;;;3.40;;
35330;SDS011;21441;52.190;20.910;2023-10-09T07:26:02;7.13;;;3.75;;
35330;SDS011;21441;52.190;20.910;2023-10-09T07:28:43;6.32;;;3.90;;
35330;SDS011;21441;52.190;20.910;2023-10-09T07:31:18;6.90;;;3.83;;
35330;SDS011;21441;52.190;20.910;2023-10-09T07:33:52;8.63;;;4.68;;
35330;SDS011;21441;52.190;20.910;2023-10-09T07:36:23;7.88;;;4.95;;
35330;SDS011;21441;52.190;20.910;2023-10-09T07:39:00;9.35;;;6.00;;
35330;SDS011;21441;52.190;20.910;2023-10-09T07:41:31;8.90;;;4.82;;
35330;SDS011;21441;52.190;20.910;2023-10-09T07:44:04;6.53;;;4.15;;
35330;SDS011;21441;52.190;20.910;2023-10-09T07:46:47;5.90;;;3.95;;
35330;SDS011;21441;52.190;20.910;2023-10-09T07:49:39;6.85;;;3.63;;
35330;SDS011;21441;52.190;20.910;2023-10-09T07:52:05;8.15;;;3.42;;
35330;SDS011;21441;52.190;20.910;2023-10-09T07:54:32;5.13;;;3.10;;
35330;SDS011;21441;52.190;20.910;2023-10-09T07:56:59;8.00;;;3.13;;
35330;SDS011;21441;52.190;20.910;2023-10-09T07:59:34;6.43;;;3.05;;
35330;SDS011;21441;52.190;20.910;2023-10-09T08:02:08;6.15;;;3.03;;
35330;SDS011;21441;52.190;20.910;2023-10-09T08:04:39;6.38;;;3.25;;
35330;SDS011;21441;52.190;20.910;2023-10-09T08:07:14;3.95;;;2.45;;
35330;SDS011;21441;52.190;20.910;2023-10-09T08:09:51;6.50;;;2.60;;
35330;SDS011;21441;52.190;20.910;2023-10-09T08:12:38;8.75;;;3.90;;
35330;SDS011;21441;52.190;20.910;2023-10-09T08:15:18;8.57;;;3.03;;
35330;SDS011;21441;52.190;20.910;2023-10-09T08:17:54;4.85;;;2.85;;
35330;SDS011;21441;52.190;20.910;2023-10-09T08:20:25;4.70;;;2.53;;
35330;SDS011;21441;52.190;20.910;2023-10-09T08:22:52;10.05;;;3.45;;
35330;SDS011;21441;52.190;20.910;2023-10-09T08:25:21;5.65;;;2.88;;
35330;SDS011;21441;52.190;20.910;2023-10-09T08:27:56;4.93;;;3.35;;
35330;SDS011;21441;52.190;20.910;2023-10-09T08:30:23;6.90;;;2.75;;
35330;SDS011;21441;52.190;20.910;2023-10-09T08:33:08;5.32;;;3.28;;
35330;SDS011;21441;52.190;20.910;2023-10-09T08:35:48;4.65;;;2.63;;
35330;SDS011;21441;52.190;20.910;2023-10-09T08:38:16;3.38;;;1.95;;
35330;SDS011;21441;52.190;20.910;2023-10-09T08:40:48;4.30;;;2.53;;
35330;SDS011;21441;52.190;20.910;2023-10-09T08:43:16;4.38;;;2.70;;
35330;SDS011;21441;52.190;20.910;2023-10-09T08:45:44;5.47;;;2.17;;
35330;SDS011;21441;52.190;20.910;2023-10-09T08:48:14;7.53;;;2.72;;
35330;SDS011;21441;52.190;20.910;2023-10-09T08:50:41;3.50;;;2.25;;
35330;SDS011;21441;52.190;20.910;2023-10-09T08:53:10;4.28;;;2.22;;
35330;SDS011;21441;52.190;20.910;2023-10-09T08:55:37;5.25;;;1.85;;
35330;SDS011;21441;52.190;20.910;2023-10-09T08:58:04;4.00;;;2.20;;
35330;SDS011;21441;52.190;20.910;2023-10-09T09:00:36;6.43;;;2.70;;
35330;SDS011;21441;52.190;20.910;2023-10-09T09:03:08;4.60;;;2.30;;
35330;SDS011;21441;52.190;20.910;2023-10-09T09:05:36;5.07;;;2.53;;
35330;SDS011;21441;52.190;20.910;2023-10-09T09:08:03;5.68;;;2.55;;
35330;SDS011;21441;52.190;20.910;2023-10-09T09:10:30;5.25;;;2.10;;
35330;SDS011;21441;52.190;20.910;2023-10-09T09:13:02;3.47;;;1.70;;
35330;SDS011;21441;52.190;20.910;2023-10-09T09:15:29;2.95;;;2.03;;
35330;SDS011;21441;52.190;20.910;2023-10-09T09:18:02;2.80;;;1.45;;
35330;SDS011;21441;52.190;20.910;2023-10-09T09:20:31;3.70;;;1.80;;
35330;SDS011;21441;52.190;20.910;2023-10-09T09:23:04;4.65;;;2.13;;
35330;SDS011;21441;52.190;20.910;2023-10-09T09:28:24;3.05;;;2.08;;
35330;SDS011;21441;52.190;20.910;2023-10-09T09:30:52;3.67;;;2.08;;
35330;SDS011;21441;52.190;20.910;2023-10-09T09:33:20;4.88;;;2.13;;
35330;SDS011;21441;52.190;20.910;2023-10-09T09:35:58;6.18;;;1.85;;
35330;SDS011;21441;52.190;20.910;2023-10-09T09:38:28;4.38;;;1.95;;
35330;SDS011;21441;52.190;20.910;2023-10-09T09:40:57;7.20;;;2.28;;
35330;SDS011;21441;52.190;20.910;2023-10-09T09:43:28;2.47;;;1.65;;
35330;SDS011;21441;52.190;20.910;2023-10-09T09:45:55;4.15;;;2.28;;
35330;SDS011;21441;52.190;20.910;2023-10-09T09:48:23;4.13;;;2.38;;
35330;SDS011;21441;52.190;20.910;2023-10-09T09:50:52;3.90;;;1.63;;
35330;SDS011;21441;52.190;20.910;2023-10-09T09:53:19;2.78;;;2.00;;
35330;SDS011;21441;52.190;20.910;2023-10-09T09:55:53;4.60;;;1.90;;
35330;SDS011;21441;52.190;20.910;2023-10-09T09:58:23;2.45;;;1.50;;
35330;SDS011;21441;52.190;20.910;2023-10-09T10:00:53;2.22;;;1.73;;
35330;SDS011;21441;52.190;20.910;2023-10-09T10:03:22;3.38;;;2.38;;
35330;SDS011;21441;52.190;20.910;2023-10-09T10:05:51;4.50;;;1.70;;
35330;SDS011;21441;52.190;20.910;2023-10-09T10:08:19;4.78;;;2.03;;
35330;SDS011;21441;52.190;20.910;2023-10-09T10:10:46;3.60;;;1.60;;
35330;SDS011;21441;52.190;20.910;2023-10-09T10:13:54;3.30;;;1.80;;
35330;SDS011;21441;52.190;20.910;2023-10-09T10:16:10;2.72;;;1.52;;
35330;SDS011;21441;52.190;20.910;2023-10-09T10:18:52;3.58;;;1.77;;
35330;SDS011;21441;52.190;20.910;2023-10-09T10:21:19;3.50;;;1.98;;
35330;SDS011;21441;52.190;20.910;2023-10-09T10:23:59;2.40;;;1.98;;
35330;SDS011;21441;52.190;20.910;2023-10-09T10:26:35;4.80;;;1.83;;
35330;SDS011;21441;52.190;20.910;2023-10-09T10:29:17;2.40;;;1.63;;
35330;SDS011;21441;52.190;20.910;2023-10-09T10:31:52;2.47;;;1.40;;
35330;SDS011;21441;52.190;20.910;2023-10-09T10:34:20;2.47;;;1.23;;
35330;SDS011;21441;52.190;20.910;2023-10-09T10:36:49;4.20;;;1.67;;
35330;SDS011;21441;52.190;20.910;2023-10-09T10:39:18;2.00;;;1.27;;
35330;SDS011;21441;52.190;20.910;2023-10-09T10:41:54;2.53;;;1.23;;
35330;SDS011;21441;52.190;20.910;2023-10-09T10:44:26;3.80;;;1.73;;
35330;SDS011;21441;52.190;20.910;2023-10-09T10:47:04;2.80;;;1.50;;
35330;SDS011;21441;52.190;20.910;2023-10-09T10:49:31;2.67;;;1.63;;
35330;SDS011;21441;52.190;20.910;2023-10-09T10:52:03;4.35;;;1.55;;
35330;SDS011;21441;52.190;20.910;2023-10-09T10:54:41;3.78;;;1.60;;
35330;SDS011;21441;52.190;20.910;2023-10-09T10:57:35;2.97;;;1.90;;
35330;SDS011;21441;52.190;20.910;2023-10-09T11:00:20;5.35;;;2.05;;
35330;SDS011;21441;52.190;20.910;2023-10-09T11:03:04;4.03;;;1.92;;
35330;SDS011;21441;52.190;20.910;2023-10-09T11:05:43;2.45;;;1.70;;
35330;SDS011;21441;52.190;20.910;2023-10-09T11:08:16;5.05;;;2.00;;
35330;SDS011;21441;52.190;20.910;2023-10-09T11:10:48;4.07;;;2.22;;
35330;SDS011;21441;52.190;20.910;2023-10-09T11:13:22;6.55;;;2.30;;
35330;SDS011;21441;52.190;20.910;2023-10-09T11:16:00;3.78;;;2.30;;
35330;SDS011;21441;52.190;20.910;2023-10-09T11:18:54;6.45;;;3.88;;
35330;SDS011;21441;52.190;20.910;2023-10-09T11:21:22;4.13;;;2.08;;
35330;SDS011;21441;52.190;20.910;2023-10-09T11:23:57;5.88;;;2.50;;
35330;SDS011;21441;52.190;20.910;2023-10-09T11:26:46;4.13;;;2.38;;
35330;SDS011;21441;52.190;20.910;2023-10-09T11:29:20;5.82;;;3.88;;
35330;SDS011;21441;52.190;20.910;2023-10-09T11:32:00;3.15;;;2.28;;
35330;SDS011;21441;52.190;20.910;2023-10-09T11:34:25;4.93;;;2.58;;
35330;SDS011;21441;52.190;20.910;2023-10-09T11:36:57;5.45;;;2.60;;
35330;SDS011;21441;52.190;20.910;2023-10-09T11:39:24;5.65;;;2.90;;
35330;SDS011;21441;52.190;20.910;2023-10-09T11:42:03;5.05;;;2.65;;
35330;SDS011;21441;52.190;20.910;2023-10-09T11:44:36;4.65;;;3.35;;
35330;SDS011;21441;52.190;20.910;2023-10-09T11:47:06;4.82;;;2.85;;
35330;SDS011;21441;52.190;20.910;2023-10-09T11:49:50;5.93;;;3.10;;
35330;SDS011;21441;52.190;20.910;2023-10-09T11:52:36;7.13;;;2.88;;
35330;SDS011;21441;52.190;20.910;2023-10-09T11:55:21;7.18;;;3.17;;
35330;SDS011;21441;52.190;20.910;2023-10-09T11:57:51;7.15;;;3.80;;
35330;SDS011;21441;52.190;20.910;2023-10-09T12:00:17;5.35;;;3.30;;
35330;SDS011;21441;52.190;20.910;2023-10-09T12:02:56;5.22;;;3.17;;
35330;SDS011;21441;52.190;20.910;2023-10-09T12:05:30;5.75;;;3.38;;
35330;SDS011;21441;52.190;20.910;2023-10-09T12:07:57;3.53;;;2.63;;
35330;SDS011;21441;52.190;20.910;2023-10-09T12:10:26;6.18;;;3.03;;
35330;SDS011;21441;52.190;20.910;2023-10-09T12:12:55;5.50;;;3.33;;
35330;SDS011;21441;52.190;20.910;2023-10-09T12:15:23;5.75;;;3.80;;
35330;SDS011;21441;52.190;20.910;2023-10-09T12:17:51;6.07;;;3.72;;
35330;SDS011;21441;52.190;20.910;2023-10-09T12:20:20;6.97;;;3.67;;
35330;SDS011;21441;52.190;20.910;2023-10-09T12:22:57;5.68;;;3.38;;
35330;SDS011;21441;52.190;20.910;2023-10-09T12:25:24;4.40;;;3.67;;
35330;SDS011;21441;52.190;20.910;2023-10-09T12:27:51;6.68;;;3.95;;
35330;SDS011;21441;52.190;20.910;2023-10-09T12:30:20;5.85;;;3.50;;
35330;SDS011;21441;52.190;20.910;2023-10-09T12:32:52;7.05;;;4.30;;
35330;SDS011;21441;52.190;20.910;2023-10-09T12:35:20;6.70;;;3.75;;
35330;SDS011;21441;52.190;20.910;2023-10-09T12:37:50;5.65;;;3.72;;
35330;SDS011;21441;52.190;20.910;2023-10-09T12:40:17;8.20;;;4.28;;
35330;SDS011;21441;52.190;20.910;2023-10-09T12:42:51;6.28;;;3.45;;
35330;SDS011;21441;52.190;20.910;2023-10-09T12:45:17;7.22;;;3.72;;
35330;SDS011;21441;52.190;20.910;2023-10-09T12:47:52;8.50;;;3.95;;
35330;SDS011;21441;52.190;20.910;2023-10-09T12:50:20;4.75;;;3.20;;
35330;SDS011;21441;52.190;20.910;2023-10-09T12:52:54;6.85;;;4.38;;
35330;SDS011;21441;52.190;20.910;2023-10-09T12:55:21;5.32;;;3.83;;
35330;SDS011;21441;52.190;20.910;2023-10-09T12:57:59;4.38;;;3.78;;
35330;SDS011;21441;52.190;20.910;2023-10-09T13:00:32;5.60;;;3.35;;
35330;SDS011;21441;52.190;20.910;2023-10-09T13:02:59;7.82;;;4.50;;
35330;SDS011;21441;52.190;20.910;2023-10-09T13:05:28;8.40;;;3.88;;
35330;SDS011;21441;52.190;20.910;2023-10-09T13:07:56;7.30;;;3.90;;
35330;SDS011;21441;52.190;20.910;2023-10-09T13:10:23;5.90;;;3.95;;
35330;SDS011;21441;52.190;20.910;2023-10-09T13:12:50;7.38;;;3.83;;
35330;SDS011;21441;52.190;20.910;2023-10-09T13:15:21;6.65;;;4.47;;
35330;SDS011;21441;52.190;20.910;2023-10-09T13:17:48;5.20;;;4.10;;
35330;SDS011;21441;52.190;20.910;2023-10-09T13:20:18;8.35;;;4.50;;
35330;SDS011;21441;52.190;20.910;2023-10-09T13:22:47;7.13;;;4.28;;
35330;SDS011;21441;52.190;20.910;2023-10-09T13:25:14;8.13;;;4.35;;
35330;SDS011;21441;52.190;20.910;2023-10-09T13:27:42;5.65;;;4.00;;
35330;SDS011;21441;52.190;20.910;2023-10-09T13:30:16;6.68;;;3.58;;
35330;SDS011;21441;52.190;20.910;2023-10-09T13:32:47;7.20;;;4.40;;
35330;SDS011;21441;52.190;20.910;2023-10-09T13:35:15;9.25;;;3.90;;
35330;SDS011;21441;52.190;20.910;2023-10-09T13:37:42;6.88;;;3.50;;
35330;SDS011;21441;52.190;20.910;2023-10-09T13:40:10;9.45;;;4.80;;
35330;SDS011;21441;52.190;20.910;2023-10-09T13:42:53;5.47;;;3.60;;
35330;SDS011;21441;52.190;20.910;2023-10-09T13:45:25;7.63;;;3.45;;
35330;SDS011;21441;52.190;20.910;2023-10-09T13:47:53;7.97;;;4.57;;
35330;SDS011;21441;52.190;20.910;2023-10-09T13:50:20;6.90;;;3.90;;
35330;SDS011;21441;52.190;20.910;2023-10-09T13:52:48;6.53;;;4.55;;
35330;SDS011;21441;52.190;20.910;2023-10-09T13:55:16;7.43;;;4.20;;
35330;SDS011;21441;52.190;20.910;2023-10-09T13:57:43;6.85;;;4.30;;
35330;SDS011;21441;52.190;20.910;2023-10-09T14:00:11;6.40;;;3.92;;
35330;SDS011;21441;52.190;20.910;2023-10-09T14:02:42;7.38;;;4.50;;
35330;SDS011;21441;52.190;20.910;2023-10-09T14:05:12;7.78;;;4.50;;
35330;SDS011;21441;52.190;20.910;2023-10-09T14:07:39;7.97;;;4.63;;
35330;SDS011;21441;52.190;20.910;2023-10-09T14:10:07;8.32;;;5.20;;
35330;SDS011;21441;52.190;20.910;2023-10-09T14:12:44;11.18;;;5.47;;
35330;SDS011;21441;52.190;20.910;2023-10-09T14:15:11;7.57;;;4.00;;
35330;SDS011;21441;52.190;20.910;2023-10-09T14:17:42;7.28;;;4.60;;
35330;SDS011;21441;52.190;20.910;2023-10-09T14:20:12;5.82;;;3.67;;
35330;SDS011;21441;52.190;20.910;2023-10-09T14:22:57;7.10;;;3.35;;
35330;SDS011;21441;52.190;20.910;2023-10-09T14:25:31;5.50;;;4.13;;
35330;SDS011;21441;52.190;20.910;2023-10-09T14:28:00;7.95;;;3.92;;
35330;SDS011;21441;52.190;20.910;2023-10-09T14:30:27;6.22;;;3.47;;
35330;SDS011;21441;52.190;20.910;2023-10-09T14:32:59;5.38;;;3.25;;
35330;SDS011;21441;52.190;20.910;2023-10-09T14:35:28;8.65;;;4.25;;
35330;SDS011;21441;52.190;20.910;2023-10-09T14:37:56;7.80;;;3.50;;
35330;SDS011;21441;52.190;20.910;2023-10-09T14:40:22;6.32;;;4.05;;
35330;SDS011;21441;52.190;20.910;2023-10-09T14:42:55;7.78;;;3.78;;
35330;SDS011;21441;52.190;20.910;2023-10-09T14:45:24;6.45;;;3.80;;
35330;SDS011;21441;52.190;20.910;2023-10-09T14:47:52;7.45;;;4.18;;
35330;SDS011;21441;52.190;20.910;2023-10-09T14:50:20;9.15;;;4.22;;
35330;SDS011;21441;52.190;20.910;2023-10-09T14:52:48;9.48;;;3.90;;
35330;SDS011;21441;52.190;20.910;2023-10-09T14:55:16;6.90;;;4.28;;
35330;SDS011;21441;52.190;20.910;2023-10-09T14:57:47;9.02;;;5.53;;
35330;SDS011;21441;52.190;20.910;2023-10-09T15:00:15;7.43;;;4.00;;
35330;SDS011;21441;52.190;20.910;2023-10-09T15:02:50;7.88;;;4.32;;
35330;SDS011;21441;52.190;20.910;2023-10-09T15:05:18;6.03;;;3.87;;
35330;SDS011;21441;52.190;20.910;2023-10-09T15:07:45;9.70;;;4.55;;
35330;SDS011;21441;52.190;20.910;2023-10-09T15:10:12;6.63;;;3.67;;
35330;SDS011;21441;52.190;20.910;2023-10-09T15:12:41;6.65;;;4.22;;